Key West, FL

1:04 PM EDT on August 30, 2016 (GMT -0400)
Key West International | | Change Station

Elev 0 ft 24.56 °N, 81.75 °W | Updated 11 minutes ago

Overcast
Overcast
83 °F
Feels Like 90 °F
N
23
Wind Variable Wind from South
Gusts 31 mph

Today
High -- | Low -- °F
--% Chance of Precip.
Yesterday
High -- | Low -- °F
Precip. -- in
Pressure 29.93 in
Visibility 10.0 miles
Clouds Few 2200 ft
Scattered Clouds 3800 ft
Overcast 7500 ft
Heat Index 90 °F
Dew Point 75 °F
Humidity 77%
Rainfall 0.12 in
Snow Depth Not available.
7:07 AM 7:46 PM
Waning Crescent, 3% visible
METAR KEYW 301653Z AUTO 18020G27KT 10SM FEW022 SCT038 OVC075 28/24 A2993 RMK AO2 PK WND 18029/1631 SLP134 T02830239
Pressure 29.93 in
Visibility 10.0 miles
Clouds Few 2200 ft
Scattered Clouds 3800 ft
Overcast 7500 ft
Heat Index 90 °F
Dew Point 75 °F
Humidity 77%
Rainfall 0.12 in
Snow Depth Not available.
7:07 AM 7:46 PM
Waning Crescent, 3% visible
METAR KEYW 301653Z AUTO 18020G27KT 10SM FEW022 SCT038 OVC075 28/24 A2993 RMK AO2 PK WND 18029/1631 SLP134 T02830239

10-Day Weather Forecast

Almanac

Astronomy

Aug. 30, 2016 Rise Set
Actual Time
Civil Twilight
Nautical Twilight
Astronomical Twilight
Moon
Length of Visible Light
Length of Day
Tomorrow will be .
, % of the Moon is Illuminated

Today's Extremes

State Highs State Lows

Community

WunderPhotos

Upload Photos

1,935,845 photos uploaded!

WunderBlog® & News

Nearby

Air Quality

  Air Quality AQ Index Pollutant
Not available.

Snow Depth

Station Depth Elevation

Earthquake Activity

City Distance Mag. Time & Date
Minimum magnitude displayed is 2.5.

Coastal Water Temperatures

Place Temperature

Stations

Nearby Weather Stations

Station Location Temp. Windchill Dew Point Humidity Wind Precip. Elev Updated Type
                   

Watches & Warnings

There are currently no watches in effect.